Time;durP1;ratioP1;P1;durP2;ratioP2;P2;SDS_P1;SDS_P2;PMS_P1;PMS_P2;Temp;Humidity;BMP_temperature;BMP_pressure;BME280_temperature;BME280_humidity;BME280_pressure;Samples;Min_cycle;Max_cycle;Signal;HPM_P1;HPM_P2
2022/09/15 00:04:06;;;;;;;;;;;13.70;99.90;;;;;;12568027;28;19924;-38
2022/09/15 00:10:09;;;;;;;;;;;13.70;99.90;;;;;;12587900;28;19931;-38
2022/09/15 00:16:11;;;;;;;;;;;13.60;99.90;;;;;;12537009;28;19929;-38
2022/09/15 00:22:16;;;;;;;;;;;13.50;99.90;;;;;;12539394;28;19994;-39
2022/09/15 00:28:19;;;;;;;;;;;13.40;99.90;;;;;;12580908;28;20395;-39
2022/09/15 00:34:21;;;;;;;;;;;13.30;99.90;;;;;;12597569;28;19928;-39
2022/09/15 00:40:23;;;;;;;;;;;13.40;99.90;;;;;;12583510;28;19924;-38
2022/09/15 00:46:27;;;;;;;;;;;13.40;99.90;;;;;;12583672;28;19924;-38
2022/09/15 00:52:34;;;;;;;;;;;13.20;99.90;;;;;;12580268;28;20403;-39
2022/09/15 00:58:39;;;;;;;;;;;13.20;99.90;;;;;;12567625;28;19925;-39
2022/09/15 01:04:41;;;;;;;;;;;13.10;99.90;;;;;;12586073;28;19935;-38
2022/09/15 01:10:45;;;;;;;;;;;13.10;99.90;;;;;;12575835;28;20050;-38
2022/09/15 01:17:05;;;;;;;;;;;13.10;99.90;;;;;;12575769;28;19932;-38
2022/09/15 01:23:16;;;;;;;;;;;13.10;99.90;;;;;;12568974;28;20295;-38
2022/09/15 01:29:37;;;;;;;;;;;13.10;99.90;;;;;;12580194;28;19932;-38
2022/09/15 01:35:47;;;;;;;;;;;13.20;99.90;;;;;;12561213;28;19929;-38
2022/09/15 01:41:51;;;;;;;;;;;13.10;99.90;;;;;;12585723;28;19936;-38
2022/09/15 01:47:54;;;;;;;;;;;12.90;99.90;;;;;;12578155;28;19929;-39
2022/09/15 01:53:57;;;;;;;;;;;12.90;99.90;;;;;;12591474;28;19928;-39
2022/09/15 01:59:59;;;;;;;;;;;13.00;99.90;;;;;;12582412;28;19931;-37
2022/09/15 02:06:06;;;;;;;;;;;13.00;99.90;;;;;;12566348;28;19929;-39
2022/09/15 02:12:11;;;;;;;;;;;13.10;99.90;;;;;;12571212;28;19924;-38
2022/09/15 02:18:16;;;;;;;;;;;13.00;99.90;;;;;;12563523;28;19939;-38
2022/09/15 02:24:19;;;;;;;;;;;13.10;99.90;;;;;;12568041;28;19925;-39
2022/09/15 02:30:21;;;;;;;;;;;13.10;99.90;;;;;;12581888;28;19932;-38
2022/09/15 02:36:25;;;;;;;;;;;13.00;99.90;;;;;;12579882;28;20296;-37
2022/09/15 02:42:30;;;;;;;;;;;13.00;99.90;;;;;;12582604;28;19928;-38
2022/09/15 02:48:31;;;;;;;;;;;12.80;99.90;;;;;;12582481;28;20304;-38
2022/09/15 02:54:33;;;;;;;;;;;12.80;99.90;;;;;;12561938;28;20427;-39
2022/09/15 03:00:37;;;;;;;;;;;12.80;99.90;;;;;;12566688;28;19929;-38
2022/09/15 03:06:39;;;;;;;;;;;12.90;99.90;;;;;;12569752;28;20364;-38
2022/09/15 03:12:47;;;;;;;;;;;12.80;99.90;;;;;;12569532;28;20618;-39
2022/09/15 03:18:48;;;;;;;;;;;12.80;99.90;;;;;;12574972;28;20288;-38
2022/09/15 03:24:50;;;;;;;;;;;12.80;99.90;;;;;;12562676;28;20304;-38
2022/09/15 03:30:52;;;;;;;;;;;12.90;99.90;;;;;;12573881;28;20019;-38
2022/09/15 03:36:54;;;;;;;;;;;13.00;99.90;;;;;;12582721;28;19944;-37
2022/09/15 03:42:55;;;;;;;;;;;13.00;99.90;;;;;;12550714;28;20414;-38
2022/09/15 03:48:57;;;;;;;;;;;13.10;99.90;;;;;;12544530;28;19929;-38
2022/09/15 03:54:59;;;;;;;;;;;13.00;99.90;;;;;;12555787;28;19924;-38
2022/09/15 04:01:00;;;;;;;;;;;13.00;99.90;;;;;;12573503;28;19925;-39
2022/09/15 04:07:02;;;;;;;;;;;12.90;99.90;;;;;;12561993;28;19969;-38
2022/09/15 04:13:03;;;;;;;;;;;12.80;99.90;;;;;;12550053;28;20002;-39
2022/09/15 04:19:06;;;;;;;;;;;12.90;99.90;;;;;;12563223;28;19925;-38
2022/09/15 04:25:08;;;;;;;;;;;12.90;99.90;;;;;;12549246;28;19928;-39
2022/09/15 04:31:11;;;;;;;;;;;12.90;99.90;;;;;;12571890;28;19929;-38
2022/09/15 04:37:13;;;;;;;;;;;12.80;99.90;;;;;;12560092;28;19932;-38
2022/09/15 04:43:14;;;;;;;;;;;12.80;99.90;;;;;;12568236;28;19929;-41
2022/09/15 04:49:16;;;;;;;;;;;12.80;99.90;;;;;;12549725;28;19932;-42
2022/09/15 04:55:17;;;;;;;;;;;12.90;99.90;;;;;;12559759;28;19925;-40
2022/09/15 05:01:21;;;;;;;;;;;12.90;99.90;;;;;;12562986;28;20448;-40
2022/09/15 05:07:23;;;;;;;;;;;12.80;99.90;;;;;;12553869;28;19925;-40
2022/09/15 05:13:24;;;;;;;;;;;12.80;99.90;;;;;;12558075;28;20463;-40
2022/09/15 05:19:26;;;;;;;;;;;12.80;99.90;;;;;;12558197;28;20183;-40
2022/09/15 05:25:28;;;;;;;;;;;12.80;99.90;;;;;;12561037;28;19932;-38
2022/09/15 05:31:30;;;;;;;;;;;12.80;99.90;;;;;;12583043;28;20385;-37
2022/09/15 05:37:32;;;;;;;;;;;12.90;99.90;;;;;;12577850;28;19933;-39
2022/09/15 05:43:35;;;;;;;;;;;12.90;99.90;;;;;;12574120;28;19947;-38
2022/09/15 05:49:36;;;;;;;;;;;12.90;99.90;;;;;;12565515;28;20179;-38
2022/09/15 05:55:38;;;;;;;;;;;12.90;99.90;;;;;;12575389;28;19925;-38
2022/09/15 06:01:40;;;;;;;;;;;13.00;99.90;;;;;;12557551;28;19932;-38
2022/09/15 06:07:41;;;;;;;;;;;13.10;99.90;;;;;;12559065;28;19925;-38
2022/09/15 06:13:43;;;;;;;;;;;13.10;99.90;;;;;;12564007;28;19925;-38
2022/09/15 06:19:45;;;;;;;;;;;13.10;99.90;;;;;;12570749;28;19924;-38
2022/09/15 06:25:47;;;;;;;;;;;13.10;99.90;;;;;;12571769;28;19925;-38
2022/09/15 06:31:48;;;;;;;;;;;13.10;99.90;;;;;;12581128;28;20277;-37
2022/09/15 06:37:50;;;;;;;;;;;13.10;99.90;;;;;;12579595;28;20034;-38
2022/09/15 06:43:51;;;;;;;;;;;13.10;99.90;;;;;;12576165;28;19924;-38
2022/09/15 06:49:54;;;;;;;;;;;13.20;99.90;;;;;;12542186;28;19932;-38
2022/09/15 06:56:02;;;;;;;;;;;13.20;99.90;;;;;;12577692;28;19925;-38
2022/09/15 07:02:04;;;;;;;;;;;13.20;99.90;;;;;;12558756;28;20006;-38
2022/09/15 07:08:06;;;;;;;;;;;13.40;99.90;;;;;;12558383;28;19925;-38
2022/09/15 07:14:07;;;;;;;;;;;13.40;99.90;;;;;;12571509;28;19925;-39
2022/09/15 07:20:09;;;;;;;;;;;13.40;99.90;;;;;;12572085;28;20296;-37
2022/09/15 07:26:12;;;;;;;;;;;13.50;99.90;;;;;;12527083;28;19925;-39
2022/09/15 07:32:14;;;;;;;;;;;13.60;99.90;;;;;;12514279;28;20411;-38
2022/09/15 07:38:16;;;;;;;;;;;13.60;99.90;;;;;;12523714;28;20422;-40
2022/09/15 07:44:17;;;;;;;;;;;13.70;99.90;;;;;;12501240;28;20370;-38
2022/09/15 07:50:19;;;;;;;;;;;13.70;99.90;;;;;;12513436;28;20288;-37
2022/09/15 07:56:22;;;;;;;;;;;13.80;99.90;;;;;;12530261;28;19924;-39
2022/09/15 08:02:24;;;;;;;;;;;13.90;99.90;;;;;;12468802;28;19929;-38
2022/09/15 08:08:26;;;;;;;;;;;13.80;99.90;;;;;;12518520;28;20307;-38
2022/09/15 08:14:30;;;;;;;;;;;13.90;99.90;;;;;;12495241;28;19931;-38
2022/09/15 08:20:32;;;;;;;;;;;14.00;99.90;;;;;;12530295;28;19933;-39
2022/09/15 08:26:37;;;;;;;;;;;14.30;99.90;;;;;;12548857;28;20406;-39
2022/09/15 08:32:38;;;;;;;;;;;14.60;99.90;;;;;;12579918;28;20241;-38
2022/09/15 08:38:41;;;;;;;;;;;14.80;99.90;;;;;;12583130;28;19931;-38
2022/09/15 08:44:42;;;;;;;;;;;15.00;99.90;;;;;;12567401;28;19936;-38
2022/09/15 08:50:48;;;;;;;;;;;15.10;99.90;;;;;;12544639;28;19955;-37
2022/09/15 08:56:50;;;;;;;;;;;15.10;99.90;;;;;;12572995;28;19935;-39
2022/09/15 09:02:58;;;;;;;;;;;15.10;99.90;;;;;;12578580;28;19924;-39
2022/09/15 09:09:04;;;;;;;;;;;15.10;99.90;;;;;;12571694;28;19929;-38
2022/09/15 09:15:05;;;;;;;;;;;15.40;99.90;;;;;;12578596;28;19935;-39
2022/09/15 09:21:10;;;;;;;;;;;15.80;99.90;;;;;;12553425;28;19932;-38
2022/09/15 09:27:13;;;;;;;;;;;16.00;99.90;;;;;;12547654;28;19932;-38
2022/09/15 09:33:23;;;;;;;;;;;16.40;99.90;;;;;;12592685;28;19932;-38
2022/09/15 09:39:26;;;;;;;;;;;16.40;99.90;;;;;;12580028;28;19924;-38
2022/09/15 09:45:28;;;;;;;;;;;16.30;99.90;;;;;;12571558;28;20372;-38
2022/09/15 09:51:31;;;;;;;;;;;16.10;99.90;;;;;;12575897;28;19925;-39
2022/09/15 09:57:35;;;;;;;;;;;16.00;99.90;;;;;;12575047;28;19928;-38
2022/09/15 10:03:42;;;;;;;;;;;16.30;99.90;;;;;;12548744;28;19935;-39
2022/09/15 10:09:49;;;;;;;;;;;16.50;99.90;;;;;;12564454;28;19928;-38
2022/09/15 10:15:52;;;;;;;;;;;16.90;99.90;;;;;;12567368;28;19935;-38
2022/09/15 10:21:54;;;;;;;;;;;16.60;99.90;;;;;;12565477;28;19931;-33
2022/09/15 10:28:07;;;;;;;;;;;16.40;99.90;;;;;;12570129;28;19928;-33
2022/09/15 10:34:29;;;;;;;;;;;16.80;99.90;;;;;;12566100;28;19930;-33
2022/09/15 10:40:46;;;;;;;;;;;17.60;99.90;;;;;;12577084;28;19932;-34
2022/09/15 10:46:51;;;;;;;;;;;17.60;99.90;;;;;;12567787;28;19939;-34
2022/09/15 10:53:02;;;;;;;;;;;17.20;99.90;;;;;;12587695;28;20301;-33
2022/09/15 10:59:12;;;;;;;;;;;17.10;99.90;;;;;;12551534;28;19940;-34
2022/09/15 11:05:31;;;;;;;;;;;17.00;99.90;;;;;;12568116;28;19939;-34
2022/09/15 11:11:44;;;;;;;;;;;17.00;99.90;;;;;;12554071;28;19929;-34
2022/09/15 11:17:58;;;;;;;;;;;17.00;99.90;;;;;;12561114;28;19925;-34
2022/09/15 11:24:18;;;;;;;;;;;16.80;99.90;;;;;;12571860;28;19924;-33
2022/09/15 11:30:22;;;;;;;;;;;16.60;99.90;;;;;;12580542;28;19944;-34
2022/09/15 11:36:35;;;;;;;;;;;16.60;99.90;;;;;;12568297;28;19932;-34
2022/09/15 11:42:44;;;;;;;;;;;17.00;99.90;;;;;;12571223;28;19929;-34
2022/09/15 11:48:50;;;;;;;;;;;17.50;99.90;;;;;;12563693;28;20031;-33
2022/09/15 11:55:01;;;;;;;;;;;18.30;99.90;;;;;;12576971;28;19931;-34
2022/09/15 12:01:11;;;;;;;;;;;18.20;99.90;;;;;;12558034;28;19939;-33
2022/09/15 12:07:14;;;;;;;;;;;17.90;99.90;;;;;;12559483;28;19925;-34
2022/09/15 12:13:17;;;;;;;;;;;17.40;99.90;;;;;;12580269;28;19924;-33
2022/09/15 12:19:38;;;;;;;;;;;17.20;99.90;;;;;;12567251;28;19928;-33
2022/09/15 12:25:45;;;;;;;;;;;17.20;99.90;;;;;;12575026;28;19924;-33
2022/09/15 12:31:47;;;;;;;;;;;17.00;99.90;;;;;;12576859;28;20222;-34
2022/09/15 12:37:52;;;;;;;;;;;16.90;99.90;;;;;;12576770;28;19924;-34
2022/09/15 12:43:55;;;;;;;;;;;16.90;99.90;;;;;;12570810;28;19932;-33
2022/09/15 12:50:02;;;;;;;;;;;17.10;99.90;;;;;;12560936;28;19925;-33
2022/09/15 12:56:06;;;;;;;;;;;17.40;99.90;;;;;;12584886;28;19932;-33
2022/09/15 13:02:27;;;;;;;;;;;17.50;99.90;;;;;;12562269;28;19947;-33
2022/09/15 13:08:29;;;;;;;;;;;17.30;99.90;;;;;;12571329;28;19928;-33
2022/09/15 13:14:40;;;;;;;;;;;17.30;99.90;;;;;;12568569;28;20286;-33
2022/09/15 13:20:47;;;;;;;;;;;16.90;99.90;;;;;;12564276;28;19924;-33
2022/09/15 13:26:51;;;;;;;;;;;16.80;99.90;;;;;;12539322;28;19925;-33
2022/09/15 13:33:11;;;;;;;;;;;16.60;99.90;;;;;;12509167;28;19936;-33
2022/09/15 13:39:13;;;;;;;;;;;16.50;99.90;;;;;;12503988;28;21026;-34
2022/09/15 13:45:32;;;;;;;;;;;16.40;99.90;;;;;;12505812;28;19925;-33
2022/09/15 13:51:35;;;;;;;;;;;16.30;99.90;;;;;;12503329;28;19925;-33
2022/09/15 13:57:41;;;;;;;;;;;16.10;99.90;;;;;;12510459;28;19929;-33
2022/09/15 14:04:06;;;;;;;;;;;16.00;99.90;;;;;;12500047;28;19947;-33
2022/09/15 14:10:17;;;;;;;;;;;16.20;99.90;;;;;;12509601;28;19936;-33
2022/09/15 14:16:25;;;;;;;;;;;16.30;99.90;;;;;;12472934;28;20336;-33
2022/09/15 14:22:27;;;;;;;;;;;16.50;99.90;;;;;;12518887;28;19947;-33
2022/09/15 14:28:32;;;;;;;;;;;16.60;99.90;;;;;;12552506;28;19932;-35
2022/09/15 14:34:35;;;;;;;;;;;16.80;99.90;;;;;;12580296;28;19944;-34
2022/09/15 14:40:38;;;;;;;;;;;16.60;99.90;;;;;;12572985;28;20376;-33
2022/09/15 14:46:40;;;;;;;;;;;16.50;99.90;;;;;;12563987;28;20023;-33
2022/09/15 14:53:00;;;;;;;;;;;16.40;99.90;;;;;;12577863;28;19925;-33
2022/09/15 14:59:07;;;;;;;;;;;16.40;99.90;;;;;;12559062;28;19959;-34
2022/09/15 15:05:13;;;;;;;;;;;16.10;99.90;;;;;;12563048;28;19928;-33
2022/09/15 15:11:16;;;;;;;;;;;15.90;99.90;;;;;;12576182;28;19925;-34
2022/09/15 15:17:26;;;;;;;;;;;15.80;99.90;;;;;;12576340;28;20412;-33
2022/09/15 15:23:28;;;;;;;;;;;15.50;99.90;;;;;;12551246;28;19925;-33
2022/09/15 15:29:38;;;;;;;;;;;15.30;99.90;;;;;;12567936;28;19932;-33
2022/09/15 15:35:40;;;;;;;;;;;15.30;99.90;;;;;;12564872;28;19925;-33
2022/09/15 15:41:41;;;;;;;;;;;15.30;99.90;;;;;;12561287;28;19928;-33
2022/09/15 15:47:43;;;;;;;;;;;15.50;99.90;;;;;;12569222;28;19952;-33
2022/09/15 15:53:45;;;;;;;;;;;15.60;99.90;;;;;;12568489;28;20311;-34
2022/09/15 15:59:47;;;;;;;;;;;15.70;99.90;;;;;;12570577;28;20021;-33
2022/09/15 16:05:50;;;;;;;;;;;15.80;99.90;;;;;;12572206;28;19931;-33
2022/09/15 16:11:52;;;;;;;;;;;15.70;99.90;;;;;;12561629;28;19928;-35
2022/09/15 16:17:54;;;;;;;;;;;15.70;99.90;;;;;;12570508;28;19928;-33
2022/09/15 16:23:56;;;;;;;;;;;15.60;99.90;;;;;;12555448;28;19924;-33
2022/09/15 16:29:58;;;;;;;;;;;15.50;99.90;;;;;;12529581;28;19924;-33
2022/09/15 16:36:07;;;;;;;;;;;15.40;99.90;;;;;;12526040;28;26432;-34
2022/09/15 16:42:09;;;;;;;;;;;15.50;99.90;;;;;;12529904;28;19936;-33
2022/09/15 16:48:11;;;;;;;;;;;15.60;99.90;;;;;;12476448;28;19932;-33
2022/09/15 16:54:14;;;;;;;;;;;15.70;99.90;;;;;;12497945;28;19925;-33
2022/09/15 17:00:16;;;;;;;;;;;15.70;99.90;;;;;;12522827;28;19925;-35
2022/09/15 17:06:18;;;;;;;;;;;15.50;99.90;;;;;;12502576;28;19935;-33
2022/09/15 17:12:20;;;;;;;;;;;15.20;99.90;;;;;;12514860;28;19932;-33
2022/09/15 17:18:22;;;;;;;;;;;14.90;99.90;;;;;;12516485;28;19925;-33
2022/09/15 17:24:23;;;;;;;;;;;14.80;99.90;;;;;;12537324;28;19940;-33
2022/09/15 17:30:27;;;;;;;;;;;14.80;99.90;;;;;;12586053;28;19932;-33
2022/09/15 17:36:28;;;;;;;;;;;14.60;99.90;;;;;;12575742;28;19924;-33
2022/09/15 17:42:30;;;;;;;;;;;14.60;99.90;;;;;;12558012;28;19924;-33
2022/09/15 17:48:32;;;;;;;;;;;14.60;99.90;;;;;;12570462;28;19936;-33
2022/09/15 17:54:33;;;;;;;;;;;14.50;99.90;;;;;;12574586;28;19932;-36
2022/09/15 18:00:37;;;;;;;;;;;14.50;99.90;;;;;;12561881;28;19938;-34
2022/09/15 18:06:39;;;;;;;;;;;14.50;99.90;;;;;;12580230;28;19929;-33
2022/09/15 18:12:46;;;;;;;;;;;14.40;99.90;;;;;;12580204;28;19984;-33
2022/09/15 18:18:51;;;;;;;;;;;14.30;99.90;;;;;;12573838;28;19977;-33
2022/09/15 18:24:53;;;;;;;;;;;14.20;99.90;;;;;;12555500;28;19924;-33
2022/09/15 18:30:54;;;;;;;;;;;14.20;99.90;;;;;;12564407;28;20288;-33
2022/09/15 18:36:57;;;;;;;;;;;14.00;99.90;;;;;;12580510;28;20337;-33
2022/09/15 18:42:59;;;;;;;;;;;13.80;99.90;;;;;;12568494;28;20421;-36
2022/09/15 18:49:02;;;;;;;;;;;13.70;99.90;;;;;;12556338;28;19947;-36
2022/09/15 18:55:05;;;;;;;;;;;13.70;99.90;;;;;;12569416;28;19933;-36
2022/09/15 19:01:06;;;;;;;;;;;13.70;99.90;;;;;;12579931;28;20356;-36
2022/09/15 19:07:09;;;;;;;;;;;13.70;99.90;;;;;;12583547;28;20452;-36
2022/09/15 19:13:12;;;;;;;;;;;13.70;99.90;;;;;;12565064;28;20463;-33
2022/09/15 19:19:14;;;;;;;;;;;13.80;99.90;;;;;;12562478;28;19929;-33
2022/09/15 19:25:16;;;;;;;;;;;13.70;99.90;;;;;;12554802;28;20299;-35
2022/09/15 19:31:18;;;;;;;;;;;13.80;99.90;;;;;;12567897;28;19924;-35
2022/09/15 19:37:20;;;;;;;;;;;13.80;99.90;;;;;;12574815;28;20102;-35
2022/09/15 19:43:21;;;;;;;;;;;13.90;99.90;;;;;;12574426;28;19928;-35
2022/09/15 19:49:24;;;;;;;;;;;13.80;99.90;;;;;;12545962;28;19925;-35
2022/09/15 19:55:27;;;;;;;;;;;13.80;99.90;;;;;;12580325;28;19924;-35
2022/09/15 20:01:29;;;;;;;;;;;13.60;99.90;;;;;;12562921;28;19924;-36
2022/09/15 20:07:31;;;;;;;;;;;13.50;99.90;;;;;;12560880;28;19928;-35
2022/09/15 20:13:38;;;;;;;;;;;13.50;99.90;;;;;;12571080;28;19924;-35
2022/09/15 20:19:39;;;;;;;;;;;13.40;99.90;;;;;;12560400;28;20387;-35
2022/09/15 20:25:41;;;;;;;;;;;13.40;99.90;;;;;;12555711;28;19951;-35
2022/09/15 20:31:43;;;;;;;;;;;13.30;99.90;;;;;;12579351;28;20478;-35
2022/09/15 20:37:45;;;;;;;;;;;13.30;99.90;;;;;;12573796;28;20351;-35
2022/09/15 20:43:47;;;;;;;;;;;13.30;99.90;;;;;;12574767;28;19935;-35
2022/09/15 20:49:49;;;;;;;;;;;13.30;99.90;;;;;;12572812;28;19929;-35
2022/09/15 20:55:50;;;;;;;;;;;13.20;99.90;;;;;;12574900;28;19925;-35
2022/09/15 21:01:52;;;;;;;;;;;13.50;99.90;;;;;;12591278;28;19928;-35
2022/09/15 21:07:54;;;;;;;;;;;13.60;99.90;;;;;;12574527;28;20474;-35
2022/09/15 21:13:56;;;;;;;;;;;13.50;99.90;;;;;;12566629;28;19933;-35
2022/09/15 21:19:58;;;;;;;;;;;13.50;99.90;;;;;;12550719;28;19925;-35
2022/09/15 21:26:01;;;;;;;;;;;13.20;99.90;;;;;;12543813;28;19925;-35
2022/09/15 21:32:03;;;;;;;;;;;13.10;99.90;;;;;;12531416;28;20387;-35
2022/09/15 21:38:05;;;;;;;;;;;13.00;99.90;;;;;;12528867;28;20335;-35
2022/09/15 21:44:08;;;;;;;;;;;12.90;99.90;;;;;;12524338;28;19929;-35
2022/09/15 21:50:10;;;;;;;;;;;12.90;99.90;;;;;;12513967;28;19929;-35
2022/09/15 21:56:12;;;;;;;;;;;12.90;99.90;;;;;;12529756;28;20369;-35
2022/09/15 22:02:16;;;;;;;;;;;12.70;99.90;;;;;;12531131;28;19936;-35
2022/09/15 22:08:18;;;;;;;;;;;12.70;99.90;;;;;;12529599;28;19925;-35
2022/09/15 22:14:20;;;;;;;;;;;12.60;99.90;;;;;;12537327;28;19925;-35
2022/09/15 22:20:22;;;;;;;;;;;12.40;99.90;;;;;;12523491;28;19932;-35
2022/09/15 22:26:25;;;;;;;;;;;12.40;99.90;;;;;;12556758;28;19931;-35
2022/09/15 22:32:27;;;;;;;;;;;12.40;99.90;;;;;;12576978;28;19935;-35
2022/09/15 22:38:29;;;;;;;;;;;12.40;99.90;;;;;;12556270;28;20365;-35
2022/09/15 22:44:30;;;;;;;;;;;12.40;99.90;;;;;;12560189;28;19931;-35
2022/09/15 22:50:32;;;;;;;;;;;12.40;99.90;;;;;;12567368;28;20019;-35
2022/09/15 22:56:34;;;;;;;;;;;12.30;99.90;;;;;;12559484;28;19932;-35
2022/09/15 23:02:36;;;;;;;;;;;12.30;99.90;;;;;;12566497;28;19935;-35
2022/09/15 23:08:38;;;;;;;;;;;12.30;99.90;;;;;;12575144;28;19936;-35
2022/09/15 23:14:40;;;;;;;;;;;12.20;99.90;;;;;;12576377;28;19929;-35
2022/09/15 23:20:43;;;;;;;;;;;12.20;99.90;;;;;;12591814;28;19924;-36
2022/09/15 23:26:45;;;;;;;;;;;12.20;99.90;;;;;;12576443;28;20384;-35
2022/09/15 23:32:47;;;;;;;;;;;12.10;99.90;;;;;;12587822;28;20649;-35
2022/09/15 23:38:49;;;;;;;;;;;12.20;99.90;;;;;;12582900;28;19924;-35
2022/09/15 23:44:50;;;;;;;;;;;12.10;99.90;;;;;;12585582;28;19975;-35
2022/09/15 23:50:52;;;;;;;;;;;12.10;99.90;;;;;;12579940;28;19928;-35
2022/09/15 23:56:54;;;;;;;;;;;12.00;99.90;;;;;;12585030;28;19924;-35
